Time;durP1;ratioP1;P1;durP2;ratioP2;P2;SDS_P1;SDS_P2;PMS_P1;PMS_P2;Temp;Humidity;BMP_temperature;BMP_pressure;BME280_temperature;BME280_humidity;BME280_pressure;Samples;Min_cycle;Max_cycle;Signal;HPM_P1;HPM_P2
2022/05/22 00:01:34;;;;;;;1.63;1.20;;;;;;;;;;5027756;28;20226;-64
2022/05/22 00:04:01;;;;;;;2.03;1.40;;;;;;;;;;5027979;28;20195;-64
2022/05/22 00:06:28;;;;;;;3.10;1.53;;;;;;;;;;5009885;28;20206;-64
2022/05/22 00:08:54;;;;;;;3.03;1.90;;;;;;;;;;5028004;28;20188;-64
2022/05/22 00:11:22;;;;;;;2.17;1.50;;;;;;;;;;5026846;28;20306;-63
2022/05/22 00:13:49;;;;;;;3.53;1.60;;;;;;;;;;5010328;28;20192;-64
2022/05/22 00:19:04;;;;;;;2.43;1.60;;;;;;;;;;5027551;28;20180;-63
2022/05/22 00:21:31;;;;;;;2.43;1.43;;;;;;;;;;4993709;28;20211;-64
2022/05/22 00:23:58;;;;;;;2.27;1.50;;;;;;;;;;5010214;28;20183;-63
2022/05/22 00:26:24;;;;;;;2.63;1.50;;;;;;;;;;5026731;28;20195;-63
2022/05/22 00:28:51;;;;;;;3.47;1.53;;;;;;;;;;5027926;28;20191;-64
2022/05/22 00:31:18;;;;;;;3.17;1.90;;;;;;;;;;5027733;28;20191;-63
2022/05/22 00:33:44;;;;;;;2.10;1.80;;;;;;;;;;5029396;28;20520;-64
2022/05/22 00:36:11;;;;;;;2.20;1.53;;;;;;;;;;5031407;28;20278;-63
2022/05/22 00:38:38;;;;;;;3.07;1.90;;;;;;;;;;5031022;28;20615;-64
2022/05/22 00:41:06;;;;;;;3.90;1.60;;;;;;;;;;5013362;28;20216;-64
2022/05/22 00:43:37;;;;;;;1.60;1.40;;;;;;;;;;5018912;28;20232;-64
2022/05/22 00:46:04;;;;;;;2.60;1.67;;;;;;;;;;4993708;28;20188;-63
2022/05/22 00:48:31;;;;;;;2.27;1.43;;;;;;;;;;5011385;28;20184;-63
2022/05/22 00:51:03;;;;;;;2.33;1.70;;;;;;;;;;5011610;28;20188;-63
2022/05/22 00:53:32;;;;;;;4.33;1.47;;;;;;;;;;5011288;28;20204;-63
2022/05/22 00:56:00;;;;;;;2.17;1.83;;;;;;;;;;5011585;28;20604;-63
2022/05/22 00:58:27;;;;;;;5.10;1.70;;;;;;;;;;5010994;28;20303;-64
2022/05/22 01:00:55;;;;;;;2.83;1.50;;;;;;;;;;5006129;28;20297;-63
2022/05/22 01:03:28;;;;;;;2.83;1.50;;;;;;;;;;5013116;28;20195;-63
2022/05/22 01:05:57;;;;;;;2.17;1.37;;;;;;;;;;5030990;28;20191;-64
2022/05/22 01:08:24;;;;;;;4.43;1.70;;;;;;;;;;5012582;28;20195;-63
2022/05/22 01:10:58;;;;;;;2.10;1.53;;;;;;;;;;4996961;28;20693;-61
2022/05/22 01:13:26;;;;;;;2.57;1.43;;;;;;;;;;5013141;28;20195;-63
2022/05/22 01:16:10;;;;;;;3.50;1.70;;;;;;;;;;4995333;28;20250;-63
2022/05/22 01:18:41;;;;;;;3.67;1.50;;;;;;;;;;5011062;28;20188;-63
2022/05/22 01:21:33;;;;;;;3.17;1.70;;;;;;;;;;5009349;28;20192;-63
2022/05/22 01:24:00;;;;;;;2.73;1.47;;;;;;;;;;5010379;28;20201;-63
2022/05/22 01:26:31;;;;;;;2.73;1.60;;;;;;;;;;5009397;28;20195;-63
2022/05/22 01:29:09;;;;;;;1.73;1.50;;;;;;;;;;5009602;28;20295;-63
2022/05/22 01:31:36;;;;;;;2.40;1.70;;;;;;;;;;5009316;28;20189;-63
2022/05/22 01:34:04;;;;;;;1.83;1.57;;;;;;;;;;5009094;28;20544;-63
2022/05/22 01:36:31;;;;;;;3.00;1.80;;;;;;;;;;5009057;28;20208;-63
2022/05/22 01:39:15;;;;;;;2.93;1.77;;;;;;;;;;5009004;28;20223;-63
2022/05/22 01:41:48;;;;;;;1.73;1.53;;;;;;;;;;5009242;28;20278;-63
2022/05/22 01:44:14;;;;;;;2.10;1.60;;;;;;;;;;5046984;28;20201;-64
2022/05/22 01:46:41;;;;;;;2.33;1.60;;;;;;;;;;5050026;28;20731;-64
2022/05/22 01:49:10;;;;;;;1.70;1.60;;;;;;;;;;5021829;28;20196;-63
2022/05/22 01:51:38;;;;;;;3.03;1.63;;;;;;;;;;4996023;28;20196;-63
2022/05/22 01:54:05;;;;;;;3.03;1.80;;;;;;;;;;4995726;28;20253;-63
2022/05/22 01:56:33;;;;;;;3.20;1.70;;;;;;;;;;5012088;28;20242;-63
2022/05/22 01:59:03;;;;;;;2.40;1.53;;;;;;;;;;4996260;28;20191;-63
2022/05/22 02:01:42;;;;;;;2.07;1.60;;;;;;;;;;5012159;28;20211;-63
2022/05/22 02:04:09;;;;;;;2.37;1.60;;;;;;;;;;5029773;28;20281;-63
2022/05/22 02:08:19;;;;;;;1.67;1.40;;;;;;;;;;5028827;28;20222;-63
2022/05/22 02:09:30;;;;;;;1.90;1.40;;;;;;;;;;5011642;28;20685;-63
2022/05/22 02:12:14;;;;;;;2.37;1.67;;;;;;;;;;5011911;28;20175;-63
2022/05/22 02:14:42;;;;;;;2.47;1.40;;;;;;;;;;5011613;28;20305;-63
2022/05/22 02:17:13;;;;;;;3.50;1.60;;;;;;;;;;4996338;28;20199;-63
2022/05/22 02:19:53;;;;;;;3.23;1.80;;;;;;;;;;5011874;28;20318;-63
2022/05/22 02:22:41;;;;;;;3.47;1.60;;;;;;;;;;4996619;28;20286;-64
2022/05/22 02:25:09;;;;;;;2.47;1.80;;;;;;;;;;4991963;28;20203;-63
2022/05/22 02:27:37;;;;;;;3.33;1.93;;;;;;;;;;5008269;28;20292;-64
2022/05/22 02:30:05;;;;;;;3.50;1.97;;;;;;;;;;4991791;28;20307;-63
2022/05/22 02:32:32;;;;;;;2.23;1.83;;;;;;;;;;4991691;28;20204;-63
2022/05/22 02:34:59;;;;;;;3.40;1.80;;;;;;;;;;5009734;28;21028;-63
2022/05/22 02:37:27;;;;;;;3.13;1.70;;;;;;;;;;5008986;28;20286;-63
2022/05/22 02:39:56;;;;;;;3.53;1.70;;;;;;;;;;5010626;28;20230;-63
2022/05/22 02:42:47;;;;;;;2.00;1.80;;;;;;;;;;5017290;28;20303;-63
2022/05/22 02:45:21;;;;;;;2.70;1.90;;;;;;;;;;5030991;28;20222;-63
2022/05/22 02:47:48;;;;;;;2.53;1.70;;;;;;;;;;5031028;28;20669;-63
2022/05/22 02:50:15;;;;;;;3.60;2.17;;;;;;;;;;5031216;28;20197;-63
2022/05/22 02:52:42;;;;;;;3.50;1.83;;;;;;;;;;5030869;28;20191;-64
2022/05/22 02:55:09;;;;;;;3.43;1.70;;;;;;;;;;5030558;28;20758;-64
2022/05/22 02:57:36;;;;;;;3.23;1.60;;;;;;;;;;5043226;28;20709;-64
2022/05/22 03:00:07;;;;;;;2.43;2.00;;;;;;;;;;4998824;28;20734;-63
2022/05/22 03:02:36;;;;;;;2.20;1.80;;;;;;;;;;5011008;28;20219;-64
2022/05/22 03:05:03;;;;;;;2.80;1.60;;;;;;;;;;5010176;28;20199;-63
2022/05/22 03:07:29;;;;;;;3.00;1.90;;;;;;;;;;4975194;28;20246;-63
2022/05/22 03:10:08;;;;;;;2.27;1.87;;;;;;;;;;5007497;28;20250;-63
2022/05/22 03:12:35;;;;;;;2.40;1.93;;;;;;;;;;5008398;28;20204;-63
2022/05/22 03:15:02;;;;;;;3.70;2.20;;;;;;;;;;4998990;28;20183;-63
2022/05/22 03:17:35;;;;;;;2.33;1.70;;;;;;;;;;5010693;28;20243;-63
2022/05/22 03:20:05;;;;;;;2.70;1.97;;;;;;;;;;5010739;28;20278;-64
2022/05/22 03:22:32;;;;;;;2.67;2.20;;;;;;;;;;5010618;28;20306;-64
2022/05/22 03:25:01;;;;;;;3.57;2.03;;;;;;;;;;5027045;28;20211;-63
2022/05/22 03:27:29;;;;;;;4.27;2.10;;;;;;;;;;5010583;28;20563;-63
2022/05/22 03:29:56;;;;;;;2.80;2.07;;;;;;;;;;5026942;28;20602;-63
2022/05/22 03:32:23;;;;;;;3.23;1.90;;;;;;;;;;5020329;28;20196;-63
2022/05/22 03:34:55;;;;;;;3.10;1.80;;;;;;;;;;4991021;28;20675;-63
2022/05/22 03:37:26;;;;;;;5.10;2.00;;;;;;;;;;4990552;28;20203;-63
2022/05/22 03:39:57;;;;;;;3.63;1.87;;;;;;;;;;4990841;28;20228;-63
2022/05/22 03:42:27;;;;;;;3.13;2.13;;;;;;;;;;4994473;28;20574;-63
2022/05/22 03:45:11;;;;;;;2.30;1.70;;;;;;;;;;5010147;28;20172;-63
2022/05/22 03:47:42;;;;;;;4.30;2.10;;;;;;;;;;5009862;28;20195;-63
2022/05/22 03:50:12;;;;;;;3.27;1.97;;;;;;;;;;5009606;28;20195;-63
2022/05/22 03:52:40;;;;;;;2.37;1.70;;;;;;;;;;5028178;28;20888;-63
2022/05/22 03:55:17;;;;;;;2.50;1.77;;;;;;;;;;5011809;28;20195;-63
2022/05/22 03:57:45;;;;;;;3.10;1.90;;;;;;;;;;5009920;28;20200;-63
2022/05/22 04:00:16;;;;;;;3.47;2.20;;;;;;;;;;5026714;28;20203;-63
2022/05/22 04:02:43;;;;;;;4.53;2.00;;;;;;;;;;5027876;28;20265;-63
2022/05/22 04:05:13;;;;;;;2.73;1.77;;;;;;;;;;5009312;28;20187;-63
2022/05/22 04:07:46;;;;;;;3.73;1.80;;;;;;;;;;5026831;28;20249;-63
2022/05/22 04:10:18;;;;;;;3.83;1.80;;;;;;;;;;5014143;28;20724;-63
2022/05/22 04:12:46;;;;;;;2.63;2.00;;;;;;;;;;5013913;28;20203;-64
2022/05/22 04:15:18;;;;;;;3.23;2.03;;;;;;;;;;5030791;28;20187;-63
2022/05/22 04:17:46;;;;;;;3.60;1.70;;;;;;;;;;5013967;28;20321;-63
2022/05/22 04:20:19;;;;;;;2.23;1.73;;;;;;;;;;5030642;28;20206;-63
2022/05/22 04:26:16;;;;;;;2.87;2.10;;;;;;;;;;4994324;28;20238;-63
2022/05/22 04:29:02;;;;;;;2.83;2.00;;;;;;;;;;4994072;28;21001;-63
2022/05/22 04:31:30;;;;;;;2.60;1.73;;;;;;;;;;4978368;28;20192;-63
2022/05/22 04:34:10;;;;;;;4.80;1.90;;;;;;;;;;4993966;28;20242;-63
2022/05/22 04:36:38;;;;;;;3.97;2.10;;;;;;;;;;4994075;28;20192;-64
2022/05/22 04:39:06;;;;;;;5.43;2.20;;;;;;;;;;4993478;28;20217;-63
2022/05/22 04:41:33;;;;;;;3.23;2.10;;;;;;;;;;5010353;28;20652;-63
2022/05/22 04:44:00;;;;;;;3.80;2.40;;;;;;;;;;5029833;28;20302;-62
2022/05/22 04:46:28;;;;;;;2.67;2.17;;;;;;;;;;5018597;28;20200;-63
2022/05/22 04:48:55;;;;;;;2.83;1.90;;;;;;;;;;5012862;28;20204;-66
2022/05/22 04:51:22;;;;;;;4.83;2.40;;;;;;;;;;4997159;28;20200;-64
2022/05/22 04:53:51;;;;;;;2.87;1.90;;;;;;;;;;5010413;28;20908;-63
2022/05/22 04:56:39;;;;;;;3.37;2.10;;;;;;;;;;5022181;28;20211;-63
2022/05/22 04:59:15;;;;;;;5.07;2.30;;;;;;;;;;5013222;28;20562;-62
2022/05/22 05:01:42;;;;;;;2.37;2.00;;;;;;;;;;5014405;28;20210;-64
2022/05/22 05:04:29;;;;;;;3.80;1.93;;;;;;;;;;5036929;28;20230;-65
2022/05/22 05:07:06;;;;;;;5.23;2.10;;;;;;;;;;5036625;28;20741;-64
2022/05/22 05:09:45;;;;;;;2.73;1.73;;;;;;;;;;5000024;28;20205;-61
2022/05/22 05:12:42;;;;;;;2.37;1.77;;;;;;;;;;4942859;28;20218;-63
2022/05/22 05:15:24;;;;;;;3.57;1.70;;;;;;;;;;5028821;28;20951;-64
2022/05/22 05:18:02;;;;;;;2.40;2.03;;;;;;;;;;5026403;28;20202;-65
2022/05/22 05:20:31;;;;;;;3.00;1.90;;;;;;;;;;5021456;28;20206;-64
2022/05/22 05:23:02;;;;;;;3.60;2.20;;;;;;;;;;5019695;28;20273;-68
2022/05/22 05:25:38;;;;;;;3.20;1.97;;;;;;;;;;5043316;28;20236;-64
2022/05/22 05:28:06;;;;;;;2.57;2.20;;;;;;;;;;5015319;28;20205;-65
2022/05/22 05:30:33;;;;;;;3.50;2.33;;;;;;;;;;5009491;28;20215;-62
2022/05/22 05:33:03;;;;;;;4.20;1.50;;;;;;;;;;5030433;28;20605;-64
2022/05/22 05:35:50;;;;;;;5.30;2.20;;;;;;;;;;5016255;28;20674;-63
2022/05/22 05:38:43;;;;;;;3.23;1.93;;;;;;;;;;5014602;28;20548;-62
2022/05/22 05:41:46;;;;;;;4.27;2.00;;;;;;;;;;5027858;28;20992;-63
2022/05/22 05:44:16;;;;;;;4.33;2.33;;;;;;;;;;5008730;28;20223;-63
2022/05/22 05:46:57;;;;;;;4.03;1.90;;;;;;;;;;5009327;28;20561;-63
2022/05/22 05:49:31;;;;;;;3.17;2.00;;;;;;;;;;5010154;28;20233;-62
2022/05/22 05:52:18;;;;;;;2.97;1.80;;;;;;;;;;5029786;28;20211;-68
2022/05/22 05:55:03;;;;;;;3.57;2.03;;;;;;;;;;4992261;28;20287;-62
2022/05/22 05:58:08;;;;;;;5.93;2.10;;;;;;;;;;5022363;28;20547;-62
2022/05/22 06:00:59;;;;;;;3.50;1.97;;;;;;;;;;5021403;28;20215;-61
2022/05/22 06:03:31;;;;;;;3.30;1.70;;;;;;;;;;5033148;28;20443;-63
2022/05/22 06:05:59;;;;;;;3.47;2.47;;;;;;;;;;5032287;28;20210;-63
2022/05/22 06:08:29;;;;;;;4.93;2.10;;;;;;;;;;5032237;28;20622;-61
2022/05/22 06:11:11;;;;;;;5.57;2.10;;;;;;;;;;5017568;28;20199;-64
2022/05/22 06:13:40;;;;;;;5.43;2.10;;;;;;;;;;5017062;28;20238;-64
2022/05/22 06:16:07;;;;;;;5.27;2.13;;;;;;;;;;5030723;28;20186;-63
2022/05/22 06:18:43;;;;;;;4.20;1.77;;;;;;;;;;5016341;28;20207;-63
2022/05/22 06:21:12;;;;;;;6.63;2.00;;;;;;;;;;5016731;28;20269;-62
2022/05/22 06:23:40;;;;;;;2.73;1.60;;;;;;;;;;5031563;28;20537;-62
2022/05/22 06:26:09;;;;;;;5.97;1.93;;;;;;;;;;5028984;28;20188;-64
2022/05/22 06:28:37;;;;;;;4.60;2.63;;;;;;;;;;5034211;28;20650;-63
2022/05/22 06:31:24;;;;;;;6.23;2.10;;;;;;;;;;5017130;28;20183;-62
2022/05/22 06:34:05;;;;;;;3.30;1.70;;;;;;;;;;5024773;28;20207;-63
2022/05/22 06:37:09;;;;;;;5.27;2.47;;;;;;;;;;4977701;28;20710;-62
2022/05/22 06:39:55;;;;;;;2.97;1.80;;;;;;;;;;5034848;28;20234;-63
2022/05/22 06:42:40;;;;;;;4.60;2.00;;;;;;;;;;5040176;28;20566;-63
2022/05/22 06:45:30;;;;;;;3.93;1.83;;;;;;;;;;5026950;28;20261;-63
2022/05/22 06:48:19;;;;;;;5.20;1.73;;;;;;;;;;5010939;28;20905;-62
2022/05/22 06:51:18;;;;;;;5.33;1.70;;;;;;;;;;5006605;28;20221;-63
2022/05/22 06:54:14;;;;;;;3.33;1.80;;;;;;;;;;5024845;28;20624;-64
2022/05/22 06:57:09;;;;;;;3.43;1.83;;;;;;;;;;5041051;28;20550;-63
2022/05/22 06:59:56;;;;;;;5.57;1.83;;;;;;;;;;5017932;28;20199;-64
2022/05/22 07:02:41;;;;;;;6.93;2.13;;;;;;;;;;5038291;28;20312;-64
2022/05/22 07:05:28;;;;;;;2.60;1.80;;;;;;;;;;4975525;28;20202;-64
2022/05/22 07:08:04;;;;;;;5.43;1.93;;;;;;;;;;5019584;28;20610;-64
2022/05/22 07:13:41;;;;;;;4.53;2.50;;;;;;;;;;5016148;28;20225;-63
2022/05/22 07:16:29;;;;;;;3.50;2.10;;;;;;;;;;5012496;28;20195;-63
2022/05/22 07:19:06;;;;;;;3.97;1.90;;;;;;;;;;5034629;28;20803;-62
2022/05/22 07:21:51;;;;;;;2.67;1.70;;;;;;;;;;5019534;28;20592;-62
2022/05/22 07:24:53;;;;;;;3.77;2.10;;;;;;;;;;5009083;28;20193;-62
2022/05/22 07:27:41;;;;;;;4.23;2.03;;;;;;;;;;5027943;28;20187;-62
2022/05/22 07:30:17;;;;;;;4.90;1.80;;;;;;;;;;5010506;28;20210;-61
2022/05/22 07:33:19;;;;;;;2.93;1.90;;;;;;;;;;4963005;28;21017;-61
2022/05/22 07:36:16;;;;;;;4.00;1.60;;;;;;;;;;5008147;28;20215;-61
2022/05/22 07:39:01;;;;;;;3.27;1.90;;;;;;;;;;5027917;28;20262;-61
2022/05/22 07:41:42;;;;;;;4.43;1.70;;;;;;;;;;4990474;28;20209;-61
2022/05/22 07:44:27;;;;;;;3.27;1.87;;;;;;;;;;4988614;28;20960;-61
2022/05/22 07:47:06;;;;;;;2.40;1.87;;;;;;;;;;4971386;28;20366;-61
2022/05/22 07:53:00;;;;;;;4.60;2.00;;;;;;;;;;5007521;28;20903;-61
2022/05/22 07:55:41;;;;;;;3.50;2.33;;;;;;;;;;5005355;28;20196;-61
2022/05/22 07:58:40;;;;;;;3.53;2.07;;;;;;;;;;4956016;28;20215;-61
2022/05/22 08:01:38;;;;;;;5.90;2.03;;;;;;;;;;5006976;28;20329;-61
2022/05/22 08:04:36;;;;;;;2.87;1.93;;;;;;;;;;5008354;28;20207;-61
2022/05/22 08:07:21;;;;;;;3.00;2.07;;;;;;;;;;5005738;28;20363;-61
2022/05/22 08:10:18;;;;;;;4.30;2.20;;;;;;;;;;4990516;28;20286;-61
2022/05/22 08:12:49;;;;;;;3.13;2.30;;;;;;;;;;4989635;28;20195;-60
2022/05/22 08:15:23;;;;;;;5.77;3.27;;;;;;;;;;4990168;28;20195;-61
2022/05/22 08:17:55;;;;;;;3.27;2.00;;;;;;;;;;4991480;28;20659;-60
2022/05/22 08:20:59;;;;;;;4.83;2.60;;;;;;;;;;4996755;28;20639;-61
2022/05/22 08:23:26;;;;;;;3.47;2.30;;;;;;;;;;4984993;28;21012;-61
2022/05/22 08:26:00;;;;;;;4.83;2.30;;;;;;;;;;4987494;28;20198;-62
2022/05/22 08:28:29;;;;;;;4.27;1.90;;;;;;;;;;4986290;28;20192;-61
2022/05/22 08:30:57;;;;;;;5.57;2.30;;;;;;;;;;4990115;28;20200;-60
2022/05/22 08:33:25;;;;;;;5.00;2.27;;;;;;;;;;4989684;28;20490;-61
2022/05/22 08:35:51;;;;;;;3.13;2.10;;;;;;;;;;5006930;28;20259;-60
2022/05/22 08:38:18;;;;;;;3.53;2.17;;;;;;;;;;5007350;28;20212;-60
2022/05/22 08:40:51;;;;;;;4.20;2.30;;;;;;;;;;5005540;28;20223;-61
2022/05/22 08:43:38;;;;;;;3.63;2.63;;;;;;;;;;5011718;28;20214;-60
2022/05/22 08:46:17;;;;;;;4.60;2.00;;;;;;;;;;5011081;28;20211;-62
2022/05/22 08:48:47;;;;;;;2.97;2.00;;;;;;;;;;5026867;28;20535;-60
2022/05/22 08:51:34;;;;;;;4.47;3.00;;;;;;;;;;5025727;28;20196;-61
2022/05/22 08:54:25;;;;;;;6.53;3.63;;;;;;;;;;5010501;28;20586;-60
2022/05/22 08:59:59;;;;;;;2.80;1.87;;;;;;;;;;5027663;28;20186;-61
2022/05/22 09:02:32;;;;;;;2.87;1.77;;;;;;;;;;5030401;28;20194;-61
2022/05/22 09:05:03;;;;;;;3.80;2.60;;;;;;;;;;5029694;28;20218;-52
2022/05/22 09:07:36;;;;;;;6.53;3.13;;;;;;;;;;5028374;28;20667;-53
2022/05/22 09:10:06;;;;;;;5.80;2.60;;;;;;;;;;5029855;28;20191;-53
2022/05/22 09:12:36;;;;;;;5.83;2.70;;;;;;;;;;4997424;28;20635;-51
2022/05/22 09:15:23;;;;;;;28.97;4.87;;;;;;;;;;5029911;28;20654;-51
2022/05/22 09:18:00;;;;;;;9.93;4.43;;;;;;;;;;5026212;28;20196;-51
2022/05/22 09:20:34;;;;;;;8.23;4.40;;;;;;;;;;5028057;28;20188;-54
2022/05/22 09:23:06;;;;;;;14.13;4.93;;;;;;;;;;5012993;28;20229;-52
2022/05/22 09:25:36;;;;;;;10.10;4.40;;;;;;;;;;5009696;28;20191;-50
2022/05/22 09:28:33;;;;;;;10.27;5.53;;;;;;;;;;5027871;28;20184;-54
2022/05/22 09:31:26;;;;;;;4.83;2.70;;;;;;;;;;5029457;28;20191;-54
2022/05/22 09:33:53;;;;;;;6.67;3.20;;;;;;;;;;5028952;28;20287;-51
2022/05/22 09:36:23;;;;;;;7.63;2.43;;;;;;;;;;5028998;28;20222;-53
2022/05/22 09:39:19;;;;;;;6.87;2.70;;;;;;;;;;5029152;28;20231;-52
2022/05/22 09:41:52;;;;;;;8.03;2.77;;;;;;;;;;5024713;28;21047;-53
2022/05/22 09:44:39;;;;;;;6.93;2.33;;;;;;;;;;5029135;28;20230;-53
2022/05/22 09:47:14;;;;;;;5.57;2.50;;;;;;;;;;5024301;28;20195;-51
2022/05/22 09:49:58;;;;;;;5.33;2.70;;;;;;;;;;5029869;28;20249;-52
2022/05/22 09:52:48;;;;;;;4.70;3.10;;;;;;;;;;5025889;28;20183;-51
2022/05/22 09:55:33;;;;;;;7.43;3.00;;;;;;;;;;5029477;28;20190;-50
2022/05/22 09:58:06;;;;;;;4.73;3.20;;;;;;;;;;5029222;28;20811;-53
2022/05/22 10:00:44;;;;;;;6.73;2.80;;;;;;;;;;4995704;28;20199;-53
2022/05/22 10:03:31;;;;;;;3.70;2.30;;;;;;;;;;5020811;28;20242;-52
2022/05/22 10:05:57;;;;;;;4.53;2.50;;;;;;;;;;5029227;28;20187;-53
2022/05/22 10:08:44;;;;;;;9.63;2.93;;;;;;;;;;5027780;28;20286;-54
2022/05/22 10:11:14;;;;;;;8.43;2.97;;;;;;;;;;5011552;28;20191;-53
2022/05/22 10:13:58;;;;;;;7.80;3.00;;;;;;;;;;5029380;28;20182;-51
2022/05/22 10:16:57;;;;;;;5.93;2.97;;;;;;;;;;5029091;28;20190;-51
2022/05/22 10:19:43;;;;;;;6.93;2.67;;;;;;;;;;4979016;28;20198;-52
2022/05/22 10:22:13;;;;;;;7.47;2.87;;;;;;;;;;5015870;28;20603;-52
2022/05/22 10:24:40;;;;;;;6.87;3.20;;;;;;;;;;5026679;28;21091;-53
2022/05/22 10:27:27;;;;;;;7.43;2.13;;;;;;;;;;5029147;28;20745;-54
2022/05/22 10:29:58;;;;;;;9.30;2.67;;;;;;;;;;5021110;28;20306;-53
2022/05/22 10:32:29;;;;;;;7.07;2.47;;;;;;;;;;5029171;28;20211;-53
2022/05/22 10:35:24;;;;;;;6.00;2.17;;;;;;;;;;5013821;28;20841;-60
2022/05/22 10:37:54;;;;;;;6.23;2.20;;;;;;;;;;5007158;28;20192;-54
2022/05/22 10:40:23;;;;;;;9.63;2.10;;;;;;;;;;5016559;28;20227;-53
2022/05/22 10:42:52;;;;;;;6.37;2.20;;;;;;;;;;5028974;28;20551;-53
2022/05/22 10:45:20;;;;;;;6.40;2.77;;;;;;;;;;5029034;28;20764;-54
2022/05/22 10:48:11;;;;;;;5.43;2.37;;;;;;;;;;5028452;28;20182;-54
2022/05/22 10:51:00;;;;;;;6.13;2.40;;;;;;;;;;5027845;28;20195;-53
2022/05/22 10:53:29;;;;;;;4.70;2.23;;;;;;;;;;5027779;28;20294;-53
2022/05/22 10:56:02;;;;;;;5.07;2.37;;;;;;;;;;5027890;28;20201;-51
2022/05/22 10:58:30;;;;;;;7.33;2.83;;;;;;;;;;5027537;28;20207;-51
2022/05/22 11:01:01;;;;;;;7.27;3.40;;;;;;;;;;5028478;28;20203;-52
2022/05/22 11:03:29;;;;;;;7.57;3.73;;;;;;;;;;5010833;28;20245;-53
2022/05/22 11:05:56;;;;;;;10.43;3.87;;;;;;;;;;5028289;28;20195;-54
2022/05/22 11:08:28;;;;;;;7.70;2.63;;;;;;;;;;5028555;28;20238;-51
2022/05/22 11:10:56;;;;;;;4.73;2.50;;;;;;;;;;5028667;28;20226;-54
2022/05/22 11:13:24;;;;;;;5.13;2.50;;;;;;;;;;5026801;28;20196;-53
2022/05/22 11:15:51;;;;;;;7.23;2.53;;;;;;;;;;5026728;28;20638;-54
2022/05/22 11:18:18;;;;;;;4.30;2.37;;;;;;;;;;5027738;28;20266;-53
2022/05/22 11:21:04;;;;;;;3.70;2.30;;;;;;;;;;5010536;28;20191;-53
2022/05/22 11:23:35;;;;;;;4.23;1.87;;;;;;;;;;5010370;28;20245;-54
2022/05/22 11:26:05;;;;;;;4.23;2.10;;;;;;;;;;5028272;28;20183;-53
2022/05/22 11:28:32;;;;;;;2.27;1.93;;;;;;;;;;5010452;28;20206;-50
2022/05/22 11:31:05;;;;;;;6.33;2.33;;;;;;;;;;5025410;28;20303;-54
2022/05/22 11:33:32;;;;;;;6.27;2.20;;;;;;;;;;5009907;28;20214;-53
2022/05/22 11:36:17;;;;;;;3.53;2.20;;;;;;;;;;5027656;28;20187;-54
2022/05/22 11:38:51;;;;;;;3.73;2.10;;;;;;;;;;5028052;28;20249;-53
2022/05/22 11:41:37;;;;;;;3.43;2.10;;;;;;;;;;5010664;28;20253;-52
2022/05/22 11:44:23;;;;;;;3.23;2.20;;;;;;;;;;5027180;28;20203;-51
2022/05/22 11:46:50;;;;;;;6.50;2.43;;;;;;;;;;5019569;28;20648;-52
2022/05/22 11:49:38;;;;;;;5.97;2.20;;;;;;;;;;5008289;28;20196;-50
2022/05/22 11:52:05;;;;;;;6.07;2.50;;;;;;;;;;5007700;28;20195;-51
2022/05/22 11:54:51;;;;;;;7.47;2.47;;;;;;;;;;5008161;28;20196;-52
2022/05/22 11:57:23;;;;;;;13.40;3.93;;;;;;;;;;5011698;28;20191;-50
2022/05/22 12:00:11;;;;;;;8.03;2.80;;;;;;;;;;5027049;28;20218;-52
2022/05/22 12:02:53;;;;;;;2.37;1.90;;;;;;;;;;5027746;28;20198;-52
2022/05/22 12:05:22;;;;;;;5.10;2.50;;;;;;;;;;5027475;28;20345;-52
2022/05/22 12:08:07;;;;;;;6.63;2.67;;;;;;;;;;5027843;28;20266;-51
2022/05/22 12:10:41;;;;;;;9.13;2.40;;;;;;;;;;5026714;28;20247;-52
2022/05/22 12:13:29;;;;;;;5.07;3.13;;;;;;;;;;4995564;28;20171;-50
2022/05/22 12:15:59;;;;;;;7.93;2.77;;;;;;;;;;5025717;28;20666;-50
2022/05/22 12:18:40;;;;;;;7.17;2.30;;;;;;;;;;5027260;28;20194;-50
2022/05/22 12:21:16;;;;;;;6.73;2.97;;;;;;;;;;4987574;28;20208;-52
2022/05/22 12:24:02;;;;;;;5.13;2.60;;;;;;;;;;4990327;28;20219;-50
2022/05/22 12:26:30;;;;;;;9.03;3.93;;;;;;;;;;5027585;28;20194;-50
2022/05/22 12:29:11;;;;;;;9.07;4.50;;;;;;;;;;5026327;28;20187;-52
2022/05/22 12:31:42;;;;;;;8.90;5.30;;;;;;;;;;5031363;28;20715;-53
2022/05/22 12:34:35;;;;;;;2.90;2.07;;;;;;;;;;5029910;28;20266;-53
2022/05/22 12:37:02;;;;;;;5.97;2.20;;;;;;;;;;5013046;28;20610;-52
2022/05/22 12:39:29;;;;;;;4.97;3.23;;;;;;;;;;5030040;28;20235;-52
2022/05/22 12:41:56;;;;;;;6.37;2.00;;;;;;;;;;5013862;28;20279;-51
2022/05/22 12:44:28;;;;;;;4.27;2.07;;;;;;;;;;5025659;28;20314;-50
2022/05/22 12:46:56;;;;;;;2.77;1.97;;;;;;;;;;5030062;28;20196;-50
2022/05/22 12:49:23;;;;;;;4.83;1.97;;;;;;;;;;5013673;28;20318;-50
2022/05/22 12:52:06;;;;;;;4.83;2.10;;;;;;;;;;5030812;28;20266;-52
2022/05/22 12:54:34;;;;;;;2.47;1.80;;;;;;;;;;5030140;28;20196;-50
2022/05/22 12:57:10;;;;;;;3.40;2.00;;;;;;;;;;5030639;28;20194;-53
2022/05/22 12:59:37;;;;;;;4.43;2.10;;;;;;;;;;5030223;28;20198;-50
2022/05/22 13:02:36;;;;;;;3.17;1.60;;;;;;;;;;5011050;28;20168;-51
2022/05/22 13:05:14;;;;;;;3.57;2.07;;;;;;;;;;5025299;28;20763;-50
2022/05/22 13:07:58;;;;;;;2.73;1.80;;;;;;;;;;5030864;28;20175;-52
2022/05/22 13:10:44;;;;;;;3.13;1.50;;;;;;;;;;5014136;28;20218;-57
2022/05/22 13:13:14;;;;;;;3.77;1.70;;;;;;;;;;5005673;28;20196;-58
2022/05/22 13:15:51;;;;;;;2.67;1.60;;;;;;;;;;5028948;28;20187;-58
2022/05/22 13:18:44;;;;;;;5.40;1.60;;;;;;;;;;5030802;28;20167;-58
2022/05/22 13:21:11;;;;;;;4.47;2.00;;;;;;;;;;5011786;28;20562;-58
2022/05/22 13:23:39;;;;;;;4.80;1.50;;;;;;;;;;5030422;28;20725;-57
2022/05/22 13:26:18;;;;;;;3.57;1.67;;;;;;;;;;5013473;28;20191;-57
2022/05/22 13:29:08;;;;;;;3.03;1.83;;;;;;;;;;5027001;28;20637;-56
2022/05/22 13:31:43;;;;;;;2.37;1.67;;;;;;;;;;5030784;28;20187;-57
2022/05/22 13:34:27;;;;;;;3.87;1.83;;;;;;;;;;5014740;28;20330;-57
2022/05/22 13:36:57;;;;;;;2.87;1.40;;;;;;;;;;5029130;28;20685;-57
2022/05/22 13:39:52;;;;;;;3.77;1.47;;;;;;;;;;5029264;28;20219;-57
2022/05/22 13:42:22;;;;;;;2.60;1.43;;;;;;;;;;5030198;28;20192;-57
2022/05/22 13:45:13;;;;;;;3.00;1.60;;;;;;;;;;5027156;28;20215;-57
2022/05/22 13:47:46;;;;;;;58.00;4.90;;;;;;;;;;5012157;28;20933;-57
2022/05/22 13:53:03;;;;;;;7.37;1.97;;;;;;;;;;5029095;28;20692;-57
2022/05/22 13:55:48;;;;;;;3.50;1.70;;;;;;;;;;5029820;28;20189;-56
2022/05/22 13:58:22;;;;;;;3.00;1.40;;;;;;;;;;5027217;28;20194;-60
2022/05/22 14:00:50;;;;;;;3.43;1.50;;;;;;;;;;4992664;28;20196;-57
2022/05/22 14:03:33;;;;;;;4.03;1.60;;;;;;;;;;5009843;28;20231;-57
2022/05/22 14:06:02;;;;;;;1.40;1.30;;;;;;;;;;4992180;28;20223;-57
2022/05/22 14:08:34;;;;;;;3.60;1.20;;;;;;;;;;5009849;28;20607;-56
2022/05/22 14:11:23;;;;;;;3.80;1.30;;;;;;;;;;4995209;28;20172;-56
2022/05/22 14:13:54;;;;;;;2.43;1.50;;;;;;;;;;5024657;28;20625;-57
2022/05/22 14:16:25;;;;;;;4.53;1.40;;;;;;;;;;5021763;28;20200;-55
2022/05/22 14:19:04;;;;;;;40.97;3.23;;;;;;;;;;5028582;28;20249;-53
2022/05/22 14:21:48;;;;;;;1.83;1.37;;;;;;;;;;5017728;28;20230;-54
2022/05/22 14:27:05;;;;;;;2.70;1.30;;;;;;;;;;5028375;28;20626;-55
2022/05/22 14:29:32;;;;;;;4.27;1.40;;;;;;;;;;5011676;28;20192;-53
2022/05/22 14:31:59;;;;;;;2.13;1.30;;;;;;;;;;5024871;28;20184;-55
2022/05/22 14:34:29;;;;;;;2.33;1.20;;;;;;;;;;5018739;28;20211;-48
2022/05/22 14:36:58;;;;;;;1.73;1.40;;;;;;;;;;5027984;28;20199;-55
2022/05/22 14:39:25;;;;;;;3.13;1.43;;;;;;;;;;5028587;28;20306;-57
2022/05/22 14:41:51;;;;;;;3.57;1.70;;;;;;;;;;5029095;28;20219;-57
2022/05/22 14:44:24;;;;;;;3.07;1.40;;;;;;;;;;5027092;28;20938;-56
2022/05/22 14:46:52;;;;;;;1.83;1.37;;;;;;;;;;5043330;28;20195;-57
2022/05/22 14:49:19;;;;;;;4.00;1.40;;;;;;;;;;5027659;28;20188;-56
2022/05/22 14:51:47;;;;;;;2.87;1.67;;;;;;;;;;5028378;28;20301;-58
2022/05/22 14:54:23;;;;;;;3.03;1.80;;;;;;;;;;5028624;28;20188;-56
2022/05/22 14:56:57;;;;;;;2.83;1.47;;;;;;;;;;5028580;28;20195;-56
2022/05/22 14:59:44;;;;;;;2.60;1.40;;;;;;;;;;5028543;28;20283;-56
2022/05/22 15:02:14;;;;;;;2.17;1.40;;;;;;;;;;5028166;28;20183;-58
2022/05/22 15:04:41;;;;;;;1.77;1.53;;;;;;;;;;5001097;28;20700;-58
2022/05/22 15:07:19;;;;;;;4.43;1.43;;;;;;;;;;5008496;28;20187;-57
2022/05/22 15:09:52;;;;;;;2.30;1.60;;;;;;;;;;5004862;28;20329;-59
2022/05/22 15:12:24;;;;;;;3.03;1.50;;;;;;;;;;5022390;28;20964;-59
2022/05/22 15:15:24;;;;;;;3.43;1.77;;;;;;;;;;5024819;28;20210;-59
2022/05/22 15:18:05;;;;;;;4.40;1.70;;;;;;;;;;5025231;28;20272;-59
2022/05/22 15:21:00;;;;;;;2.17;1.53;;;;;;;;;;5024172;28;20179;-59
2022/05/22 15:26:22;;;;;;;7.47;1.70;;;;;;;;;;5025726;28;20222;-59
2022/05/22 15:28:49;;;;;;;2.50;1.40;;;;;;;;;;5004032;28;20204;-60
2022/05/22 15:31:26;;;;;;;5.30;1.47;;;;;;;;;;5025744;28;20286;-60
2022/05/22 15:33:55;;;;;;;1.73;1.20;;;;;;;;;;5023372;28;20202;-59
2022/05/22 15:36:24;;;;;;;2.00;1.30;;;;;;;;;;5022447;28;20202;-59
2022/05/22 15:39:07;;;;;;;2.00;1.10;;;;;;;;;;5025046;28;20266;-59
2022/05/22 15:41:42;;;;;;;4.33;1.27;;;;;;;;;;5023722;28;20183;-59
2022/05/22 15:44:12;;;;;;;4.90;1.40;;;;;;;;;;5032642;28;20298;-59
2022/05/22 15:46:48;;;;;;;5.83;1.40;;;;;;;;;;5032241;28;20202;-58
2022/05/22 15:52:07;;;;;;;2.07;1.20;;;;;;;;;;5036703;28;20190;-59
2022/05/22 15:54:34;;;;;;;3.67;1.53;;;;;;;;;;5008350;28;20195;-59
2022/05/22 15:57:01;;;;;;;1.53;1.40;;;;;;;;;;5026114;28;20207;-58
2022/05/22 15:59:28;;;;;;;1.90;1.30;;;;;;;;;;5018788;28;20917;-60